Time;durP1;ratioP1;P1;durP2;ratioP2;P2;SDS_P1;SDS_P2;PMS_P1;PMS_P2;Temp;Humidity;BMP_temperature;BMP_pressure;BME280_temperature;BME280_humidity;BME280_pressure;Samples;Min_cycle;Max_cycle;Signal;HPM_P1;HPM_P2
2022/03/09 00:01:26;;;;;;;1.42;1.00;;;;;;;;;;4899440;29;20044;-70
2022/03/09 00:03:52;;;;;;;1.92;1.17;;;;;;;;;;4900166;29;20032;-73
2022/03/09 00:06:17;;;;;;;2.25;1.30;;;;;;;;;;4899784;29;20048;-68
2022/03/09 00:08:43;;;;;;;2.78;1.55;;;;;;;;;;4899596;29;20080;-68
2022/03/09 00:11:09;;;;;;;2.35;1.35;;;;;;;;;;4899683;29;20036;-70
2022/03/09 00:13:35;;;;;;;3.00;2.08;;;;;;;;;;4899269;29;20029;-69
2022/03/09 00:16:01;;;;;;;1.90;1.20;;;;;;;;;;4899247;29;20048;-72
2022/03/09 00:18:26;;;;;;;2.10;1.40;;;;;;;;;;4899492;29;20033;-68
2022/03/09 00:20:52;;;;;;;2.28;1.42;;;;;;;;;;4899629;29;20064;-68
2022/03/09 00:23:18;;;;;;;1.92;1.10;;;;;;;;;;4899473;29;20029;-69
2022/03/09 00:25:44;;;;;;;1.48;1.13;;;;;;;;;;4899295;29;20449;-69
2022/03/09 00:28:10;;;;;;;2.00;1.30;;;;;;;;;;4899577;29;20107;-72
2022/03/09 00:30:36;;;;;;;2.88;1.88;;;;;;;;;;4899825;29;20052;-70
2022/03/09 00:33:01;;;;;;;2.70;1.55;;;;;;;;;;4899647;29;20035;-69
2022/03/09 00:35:27;;;;;;;1.80;1.20;;;;;;;;;;4891511;29;20040;-70
2022/03/09 00:37:53;;;;;;;3.28;1.90;;;;;;;;;;4896868;29;20060;-71
2022/03/09 00:40:19;;;;;;;1.85;1.42;;;;;;;;;;4897309;29;20547;-69
2022/03/09 00:42:45;;;;;;;1.98;1.25;;;;;;;;;;4898896;29;20383;-69
2022/03/09 00:45:11;;;;;;;2.25;1.50;;;;;;;;;;4898946;29;20082;-71
2022/03/09 00:47:37;;;;;;;1.63;1.10;;;;;;;;;;4898699;29;20510;-73
2022/03/09 00:50:05;;;;;;;2.00;1.23;;;;;;;;;;4899250;29;20115;-73
2022/03/09 00:52:30;;;;;;;2.85;1.63;;;;;;;;;;4898649;29;20502;-71
2022/03/09 00:54:56;;;;;;;2.25;1.40;;;;;;;;;;4898891;29;20037;-74
2022/03/09 00:57:22;;;;;;;2.83;1.30;;;;;;;;;;4899357;29;20496;-66
2022/03/09 00:59:48;;;;;;;1.23;0.77;;;;;;;;;;4898724;29;20096;-69
2022/03/09 01:02:14;;;;;;;1.20;0.70;;;;;;;;;;4898898;29;20041;-70
2022/03/09 01:04:40;;;;;;;0.70;0.60;;;;;;;;;;4898289;29;20044;-67
2022/03/09 01:07:06;;;;;;;0.90;0.70;;;;;;;;;;4898143;29;20059;-69
2022/03/09 01:09:32;;;;;;;1.45;0.93;;;;;;;;;;4898470;29;20048;-72
2022/03/09 01:11:58;;;;;;;0.50;0.50;;;;;;;;;;4898446;29;20029;-71
2022/03/09 01:14:24;;;;;;;1.02;0.63;;;;;;;;;;4898512;29;20407;-69
2022/03/09 01:16:50;;;;;;;0.55;0.50;;;;;;;;;;4898753;29;20029;-70
2022/03/09 01:19:17;;;;;;;1.17;0.95;;;;;;;;;;4898608;29;20088;-71
2022/03/09 01:21:43;;;;;;;1.30;0.75;;;;;;;;;;4898529;29;20024;-71
2022/03/09 01:24:08;;;;;;;0.95;0.85;;;;;;;;;;4898924;29;20388;-69
2022/03/09 01:26:34;;;;;;;1.08;0.73;;;;;;;;;;4898671;29;20093;-67
2022/03/09 01:29:00;;;;;;;0.98;0.68;;;;;;;;;;4898614;29;20037;-67
2022/03/09 01:31:26;;;;;;;0.68;0.55;;;;;;;;;;4900357;29;20036;-68
2022/03/09 01:33:52;;;;;;;1.02;0.75;;;;;;;;;;4917061;29;20408;-69
2022/03/09 01:36:18;;;;;;;0.98;0.57;;;;;;;;;;4917304;29;20035;-68
2022/03/09 01:38:44;;;;;;;1.45;0.80;;;;;;;;;;4917135;29;20146;-68
2022/03/09 01:41:11;;;;;;;1.00;0.82;;;;;;;;;;4916759;29;20030;-72
2022/03/09 01:43:38;;;;;;;1.20;0.70;;;;;;;;;;4916561;29;20115;-67
2022/03/09 01:46:04;;;;;;;1.30;0.70;;;;;;;;;;4916766;29;20036;-68
2022/03/09 01:48:30;;;;;;;1.00;0.60;;;;;;;;;;4917043;29;20048;-67
2022/03/09 01:50:56;;;;;;;1.50;0.90;;;;;;;;;;4916870;29;20071;-70
2022/03/09 01:53:22;;;;;;;1.25;0.70;;;;;;;;;;4916830;29;20064;-67
2022/03/09 01:55:48;;;;;;;1.35;0.75;;;;;;;;;;4916923;29;20028;-67
2022/03/09 01:58:14;;;;;;;1.15;0.80;;;;;;;;;;4917163;29;20044;-71
2022/03/09 02:00:40;;;;;;;1.40;1.00;;;;;;;;;;4916760;29;20087;-68
2022/03/09 02:03:06;;;;;;;2.25;1.05;;;;;;;;;;4916544;29;20048;-70
2022/03/09 02:05:34;;;;;;;1.67;1.00;;;;;;;;;;4916693;29;20171;-69
2022/03/09 02:10:45;;;;;;;2.45;1.70;;;;;;;;;;4916278;29;20070;-72
2022/03/09 02:13:10;;;;;;;3.40;2.00;;;;;;;;;;4916355;29;20036;-68
2022/03/09 02:15:36;;;;;;;3.65;1.85;;;;;;;;;;4915962;29;20522;-69
2022/03/09 02:18:03;;;;;;;3.38;1.80;;;;;;;;;;4916315;29;20064;-70
2022/03/09 02:20:30;;;;;;;3.53;2.20;;;;;;;;;;4916196;29;20050;-68
2022/03/09 02:22:56;;;;;;;2.50;1.75;;;;;;;;;;4915322;29;20039;-69
2022/03/09 02:25:22;;;;;;;2.42;1.50;;;;;;;;;;4916333;29;20050;-69
2022/03/09 02:27:48;;;;;;;1.95;1.13;;;;;;;;;;4916486;29;20032;-70
2022/03/09 02:30:16;;;;;;;1.77;1.30;;;;;;;;;;4916716;29;20071;-67
2022/03/09 02:32:45;;;;;;;1.35;0.82;;;;;;;;;;4916316;29;20036;-67
2022/03/09 02:35:12;;;;;;;1.23;0.57;;;;;;;;;;4915998;29;20099;-65
2022/03/09 02:37:39;;;;;;;0.98;0.73;;;;;;;;;;4916114;29;20024;-66
2022/03/09 02:40:10;;;;;;;0.75;0.68;;;;;;;;;;4916589;29;20036;-64
2022/03/09 02:42:36;;;;;;;1.35;0.88;;;;;;;;;;4915979;29;20040;-63
2022/03/09 02:45:03;;;;;;;1.33;0.80;;;;;;;;;;4916042;29;20093;-64
2022/03/09 02:47:29;;;;;;;1.77;0.93;;;;;;;;;;4916014;29;20044;-69
2022/03/09 02:49:55;;;;;;;2.10;1.33;;;;;;;;;;4915666;29;20028;-66
2022/03/09 02:52:21;;;;;;;1.05;0.80;;;;;;;;;;4915797;29;20044;-63
2022/03/09 02:54:47;;;;;;;0.90;0.60;;;;;;;;;;4915983;29;20030;-66
2022/03/09 02:57:13;;;;;;;1.27;0.90;;;;;;;;;;4915906;29;20047;-67
2022/03/09 02:59:39;;;;;;;1.40;0.95;;;;;;;;;;4915809;29;20048;-65
2022/03/09 03:02:05;;;;;;;1.25;0.77;;;;;;;;;;4915938;29;20043;-67
2022/03/09 03:04:31;;;;;;;1.75;0.93;;;;;;;;;;4915298;29;20031;-66
2022/03/09 03:06:57;;;;;;;1.25;0.93;;;;;;;;;;4914160;29;20399;-66
2022/03/09 03:09:23;;;;;;;1.85;1.25;;;;;;;;;;4915392;29;20075;-65
2022/03/09 03:11:48;;;;;;;2.42;1.40;;;;;;;;;;4915533;29;20424;-65
2022/03/09 03:14:14;;;;;;;3.13;1.40;;;;;;;;;;4915719;29;20035;-69
2022/03/09 03:16:40;;;;;;;2.65;1.50;;;;;;;;;;4915724;29;20131;-70
2022/03/09 03:19:06;;;;;;;2.28;1.20;;;;;;;;;;4899250;29;20033;-67
2022/03/09 03:21:32;;;;;;;2.00;1.27;;;;;;;;;;4876785;29;20041;-67
2022/03/09 03:23:58;;;;;;;2.40;1.23;;;;;;;;;;4877706;29;20025;-65
2022/03/09 03:26:24;;;;;;;3.80;1.35;;;;;;;;;;4879195;29;20037;-68
2022/03/09 03:28:53;;;;;;;2.30;1.30;;;;;;;;;;4879187;29;20132;-68
2022/03/09 03:31:19;;;;;;;4.45;1.40;;;;;;;;;;4879002;29;20450;-68
2022/03/09 03:33:47;;;;;;;2.20;1.08;;;;;;;;;;4878655;29;20536;-67
2022/03/09 03:36:16;;;;;;;2.38;1.45;;;;;;;;;;4878419;29;20544;-67
2022/03/09 03:38:42;;;;;;;3.70;1.85;;;;;;;;;;4877604;29;20036;-65
2022/03/09 03:41:08;;;;;;;3.60;2.10;;;;;;;;;;4878588;29;20037;-64
2022/03/09 03:43:34;;;;;;;3.97;2.53;;;;;;;;;;4878802;29;20108;-64
2022/03/09 03:46:00;;;;;;;4.57;2.75;;;;;;;;;;4879064;29;20472;-66
2022/03/09 03:48:26;;;;;;;5.40;3.40;;;;;;;;;;4878976;29;20040;-64
2022/03/09 03:50:51;;;;;;;6.15;2.67;;;;;;;;;;4878645;29;20091;-66
2022/03/09 03:53:17;;;;;;;6.88;3.42;;;;;;;;;;4878667;29;20357;-69
2022/03/09 03:55:44;;;;;;;5.03;3.05;;;;;;;;;;4878654;29;20488;-66
2022/03/09 03:58:11;;;;;;;6.40;3.70;;;;;;;;;;4878753;29;20196;-67
2022/03/09 04:00:37;;;;;;;4.30;2.70;;;;;;;;;;4878636;29;20038;-65
2022/03/09 04:03:02;;;;;;;5.53;3.80;;;;;;;;;;4878558;29;20041;-66
2022/03/09 04:05:29;;;;;;;5.78;3.20;;;;;;;;;;4878970;29;20136;-68
2022/03/09 04:07:55;;;;;;;3.65;2.42;;;;;;;;;;4879488;29;20025;-67
2022/03/09 04:10:22;;;;;;;3.90;2.53;;;;;;;;;;4884090;29;20514;-67
2022/03/09 04:12:48;;;;;;;3.67;2.53;;;;;;;;;;4897006;29;20029;-68
2022/03/09 04:15:14;;;;;;;4.45;2.40;;;;;;;;;;4895964;29;20047;-69
2022/03/09 04:17:43;;;;;;;3.88;2.42;;;;;;;;;;4897546;29;20053;-69
2022/03/09 04:20:10;;;;;;;6.07;3.03;;;;;;;;;;4897455;29;20043;-69
2022/03/09 04:22:37;;;;;;;4.93;3.10;;;;;;;;;;4897339;29;20048;-68
2022/03/09 04:25:04;;;;;;;5.10;2.78;;;;;;;;;;4897104;29;20040;-64
2022/03/09 04:27:30;;;;;;;6.18;3.22;;;;;;;;;;4897200;29;20039;-68
2022/03/09 04:29:56;;;;;;;5.25;3.55;;;;;;;;;;4897253;29;20115;-67
2022/03/09 04:32:21;;;;;;;4.60;2.97;;;;;;;;;;4897202;29;20035;-67
2022/03/09 04:34:47;;;;;;;5.38;3.45;;;;;;;;;;4897201;29;20033;-65
2022/03/09 04:37:15;;;;;;;4.57;2.70;;;;;;;;;;4897149;29;20056;-66
2022/03/09 04:39:40;;;;;;;4.47;3.08;;;;;;;;;;4895742;29;20064;-67
2022/03/09 04:42:06;;;;;;;6.35;3.58;;;;;;;;;;4896903;29;20112;-66
2022/03/09 04:44:32;;;;;;;4.85;3.10;;;;;;;;;;4890216;29;20048;-66
2022/03/09 04:46:58;;;;;;;6.22;3.58;;;;;;;;;;4898994;29;20087;-66
2022/03/09 04:49:24;;;;;;;4.47;2.83;;;;;;;;;;4899974;29;20108;-67
2022/03/09 04:51:49;;;;;;;5.43;2.88;;;;;;;;;;4900252;29;20033;-67
2022/03/09 04:54:15;;;;;;;6.90;3.55;;;;;;;;;;4900287;29;20187;-65
2022/03/09 04:56:41;;;;;;;5.03;3.50;;;;;;;;;;4900250;29;20119;-65
2022/03/09 04:59:07;;;;;;;4.68;3.00;;;;;;;;;;4900181;29;20052;-65
2022/03/09 05:01:33;;;;;;;5.07;3.22;;;;;;;;;;4898866;29;20448;-65
2022/03/09 05:04:00;;;;;;;7.90;3.85;;;;;;;;;;4898698;29;20103;-64
2022/03/09 05:06:26;;;;;;;6.72;4.03;;;;;;;;;;4899867;29;20109;-65
2022/03/09 05:08:52;;;;;;;6.03;3.30;;;;;;;;;;4899822;29;20060;-74
2022/03/09 05:11:17;;;;;;;6.28;3.45;;;;;;;;;;4899933;29;20028;-74
2022/03/09 05:13:43;;;;;;;7.75;3.17;;;;;;;;;;4899884;29;20488;-72
2022/03/09 05:16:10;;;;;;;7.13;3.50;;;;;;;;;;4893878;29;20116;-70
2022/03/09 05:18:40;;;;;;;4.90;3.22;;;;;;;;;;4899379;29;20458;-64
2022/03/09 05:21:07;;;;;;;4.13;2.80;;;;;;;;;;4897309;29;20032;-74
2022/03/09 05:23:34;;;;;;;5.22;3.10;;;;;;;;;;4898893;29;20409;-72
2022/03/09 05:25:59;;;;;;;6.43;3.10;;;;;;;;;;4898894;29;20532;-70
2022/03/09 05:28:25;;;;;;;5.25;3.25;;;;;;;;;;4896340;29;20123;-70
2022/03/09 05:30:51;;;;;;;4.90;3.28;;;;;;;;;;4899055;29;20040;-69
2022/03/09 05:33:17;;;;;;;7.15;3.58;;;;;;;;;;4898744;29;20021;-71
2022/03/09 05:35:44;;;;;;;6.38;3.25;;;;;;;;;;4898677;29;20040;-70
2022/03/09 05:38:10;;;;;;;7.20;4.40;;;;;;;;;;4898689;29;20033;-70
2022/03/09 05:40:35;;;;;;;6.32;3.90;;;;;;;;;;4898734;29;20055;-70
2022/03/09 05:43:01;;;;;;;6.40;3.38;;;;;;;;;;4897505;29;20032;-70
2022/03/09 05:45:27;;;;;;;5.57;3.75;;;;;;;;;;4898704;29;20123;-71
2022/03/09 05:47:53;;;;;;;7.60;4.57;;;;;;;;;;4902241;29;20172;-70
2022/03/09 05:50:19;;;;;;;6.28;4.68;;;;;;;;;;4917383;29;20068;-71
2022/03/09 05:52:45;;;;;;;6.88;4.30;;;;;;;;;;4917005;29;20028;-69
2022/03/09 05:55:11;;;;;;;4.97;3.75;;;;;;;;;;4899228;29;20037;-70
2022/03/09 05:57:36;;;;;;;7.47;3.97;;;;;;;;;;4906845;29;20033;-71
2022/03/09 06:00:06;;;;;;;9.57;5.68;;;;;;;;;;4913694;29;20032;-70
2022/03/09 06:02:37;;;;;;;10.07;5.38;;;;;;;;;;4915188;29;20113;-71
2022/03/09 06:05:03;;;;;;;9.43;5.13;;;;;;;;;;4915245;29;20635;-70
2022/03/09 06:07:30;;;;;;;9.23;4.78;;;;;;;;;;4915607;29;20032;-73
2022/03/09 06:09:56;;;;;;;9.40;4.70;;;;;;;;;;4915297;29;20043;-72
2022/03/09 06:12:22;;;;;;;6.55;4.50;;;;;;;;;;4915438;29;20028;-73
2022/03/09 06:14:48;;;;;;;7.63;5.40;;;;;;;;;;4915445;29;20110;-74
2022/03/09 06:17:14;;;;;;;7.90;4.78;;;;;;;;;;4914765;29;20031;-73
2022/03/09 06:19:40;;;;;;;7.10;4.40;;;;;;;;;;4914623;29;20036;-70
2022/03/09 06:22:06;;;;;;;8.25;4.57;;;;;;;;;;4914726;29;20475;-71
2022/03/09 06:24:31;;;;;;;6.88;4.32;;;;;;;;;;4914816;29;20384;-74
2022/03/09 06:26:58;;;;;;;7.03;4.15;;;;;;;;;;4915503;29;20390;-75
2022/03/09 06:29:25;;;;;;;6.53;4.20;;;;;;;;;;4915400;29;20063;-73
2022/03/09 06:31:50;;;;;;;8.45;5.07;;;;;;;;;;4909816;29;20329;-74
2022/03/09 06:34:17;;;;;;;8.23;4.80;;;;;;;;;;4916586;29;20088;-73
2022/03/09 06:36:44;;;;;;;8.93;4.40;;;;;;;;;;4916914;29;20036;-72
2022/03/09 06:39:15;;;;;;;8.00;3.80;;;;;;;;;;4916911;29;20515;-71
2022/03/09 06:41:44;;;;;;;6.22;3.88;;;;;;;;;;4916919;29;20032;-74
2022/03/09 06:44:12;;;;;;;5.30;3.97;;;;;;;;;;4916894;29;20028;-71
2022/03/09 06:46:40;;;;;;;6.25;3.58;;;;;;;;;;4916680;29;20056;-70
2022/03/09 06:49:06;;;;;;;7.20;4.78;;;;;;;;;;4916907;29;20028;-72
2022/03/09 06:51:32;;;;;;;12.77;5.03;;;;;;;;;;4917163;29;20031;-70
2022/03/09 06:53:58;;;;;;;6.25;4.53;;;;;;;;;;4916667;29;20024;-75
2022/03/09 06:56:24;;;;;;;6.65;4.05;;;;;;;;;;4916335;29;20044;-73
2022/03/09 06:58:50;;;;;;;6.35;4.40;;;;;;;;;;4916579;29;20473;-74
2022/03/09 07:01:16;;;;;;;6.85;4.22;;;;;;;;;;4916604;29;20040;-71
2022/03/09 07:03:42;;;;;;;6.38;4.45;;;;;;;;;;4916811;29;20040;-71
2022/03/09 07:06:07;;;;;;;8.60;5.22;;;;;;;;;;4915247;29;20091;-71
2022/03/09 07:08:34;;;;;;;6.05;4.22;;;;;;;;;;4916287;29;20377;-71
2022/03/09 07:11:00;;;;;;;7.63;4.78;;;;;;;;;;4916908;29;20032;-74
2022/03/09 07:13:26;;;;;;;9.23;4.90;;;;;;;;;;4916623;29;20039;-70
2022/03/09 07:15:52;;;;;;;7.50;5.05;;;;;;;;;;4916135;29;20057;-72
2022/03/09 07:18:17;;;;;;;8.82;5.45;;;;;;;;;;4914984;29;20032;-71
2022/03/09 07:20:43;;;;;;;7.45;5.10;;;;;;;;;;4915012;29;20042;-72
2022/03/09 07:23:09;;;;;;;8.43;5.28;;;;;;;;;;4916249;29;20110;-70
2022/03/09 07:25:35;;;;;;;8.90;5.20;;;;;;;;;;4916262;29;20059;-73
2022/03/09 07:28:01;;;;;;;8.10;4.85;;;;;;;;;;4915109;29;20068;-71
2022/03/09 07:30:27;;;;;;;9.82;6.10;;;;;;;;;;4916032;29;20341;-71
2022/03/09 07:32:53;;;;;;;9.52;6.07;;;;;;;;;;4916243;29;20111;-74
2022/03/09 07:35:19;;;;;;;11.98;7.13;;;;;;;;;;4915861;29;20134;-72
2022/03/09 07:37:45;;;;;;;8.48;5.00;;;;;;;;;;4916054;29;20368;-73
2022/03/09 07:40:11;;;;;;;8.05;5.22;;;;;;;;;;4915818;29;20051;-74
2022/03/09 07:42:37;;;;;;;8.98;5.70;;;;;;;;;;4915784;29;20070;-70
2022/03/09 07:45:06;;;;;;;9.13;6.22;;;;;;;;;;4915648;29;20059;-74
2022/03/09 07:47:33;;;;;;;9.38;6.60;;;;;;;;;;4916320;29;20183;-72
2022/03/09 07:49:59;;;;;;;11.43;7.47;;;;;;;;;;4915993;29;20039;-72
2022/03/09 07:52:25;;;;;;;8.70;6.15;;;;;;;;;;4915696;29;20048;-76
2022/03/09 07:54:51;;;;;;;10.70;8.98;;;;;;;;;;4915651;29;20028;-76
2022/03/09 07:57:17;;;;;;;19.85;10.32;;;;;;;;;;4915913;29;20107;-75
2022/03/09 07:59:42;;;;;;;11.30;8.82;;;;;;;;;;4915722;29;20406;-76
2022/03/09 08:02:08;;;;;;;11.00;9.02;;;;;;;;;;4915400;29;20037;-75
2022/03/09 08:04:34;;;;;;;12.48;9.38;;;;;;;;;;4915778;29;20028;-73
2022/03/09 08:07:00;;;;;;;12.55;8.05;;;;;;;;;;4915666;29;20119;-71
2022/03/09 08:09:26;;;;;;;14.98;10.43;;;;;;;;;;4915445;29;20026;-70
2022/03/09 08:11:52;;;;;;;14.43;10.07;;;;;;;;;;4915778;29;20043;-73
2022/03/09 08:14:18;;;;;;;13.07;9.25;;;;;;;;;;4912623;29;20036;-72
2022/03/09 08:16:45;;;;;;;12.05;8.57;;;;;;;;;;4914551;29;20091;-69
2022/03/09 08:19:11;;;;;;;16.02;9.65;;;;;;;;;;4915523;29;20036;-71
2022/03/09 08:21:37;;;;;;;13.13;9.18;;;;;;;;;;4915903;29;20483;-73
2022/03/09 08:24:03;;;;;;;26.27;10.75;;;;;;;;;;4918843;29;20036;-72
2022/03/09 08:26:29;;;;;;;17.17;10.55;;;;;;;;;;4918726;29;20458;-74
2022/03/09 08:28:56;;;;;;;21.85;10.90;;;;;;;;;;4918982;29;20036;-74
2022/03/09 08:31:22;;;;;;;24.63;9.05;;;;;;;;;;4918606;29;20501;-71
2022/03/09 08:33:48;;;;;;;16.13;11.10;;;;;;;;;;4918670;29;20024;-70
2022/03/09 08:36:14;;;;;;;15.52;9.32;;;;;;;;;;4918630;29;20040;-69
2022/03/09 08:38:40;;;;;;;18.58;10.90;;;;;;;;;;4918635;29;20074;-72
2022/03/09 08:41:05;;;;;;;16.88;11.13;;;;;;;;;;4918617;29;20044;-69
2022/03/09 08:43:31;;;;;;;16.27;10.20;;;;;;;;;;4918323;29;20028;-71
2022/03/09 08:46:00;;;;;;;24.50;11.90;;;;;;;;;;4917189;29;20043;-73
2022/03/09 08:48:26;;;;;;;19.35;12.35;;;;;;;;;;4918319;29;20607;-72
2022/03/09 08:50:53;;;;;;;19.45;13.32;;;;;;;;;;4918301;29;20036;-71
2022/03/09 08:53:20;;;;;;;20.52;13.25;;;;;;;;;;4917983;29;20024;-68
2022/03/09 08:55:46;;;;;;;23.90;11.82;;;;;;;;;;4918251;29;20044;-69
2022/03/09 08:58:12;;;;;;;24.55;13.02;;;;;;;;;;4918311;29;20079;-71
2022/03/09 09:00:39;;;;;;;18.63;12.90;;;;;;;;;;4918275;29;20108;-72
2022/03/09 09:03:05;;;;;;;41.40;13.23;;;;;;;;;;4917512;29;20044;-70
2022/03/09 09:05:31;;;;;;;42.85;14.23;;;;;;;;;;4917673;29;20064;-72
2022/03/09 09:07:56;;;;;;;21.35;12.95;;;;;;;;;;4917899;29;20074;-71
2022/03/09 09:10:23;;;;;;;22.48;14.85;;;;;;;;;;4918272;29;20506;-72
2022/03/09 09:12:50;;;;;;;21.20;13.05;;;;;;;;;;4917996;29;20040;-72
2022/03/09 09:15:16;;;;;;;29.02;13.77;;;;;;;;;;4917709;29;20052;-73
2022/03/09 09:17:42;;;;;;;33.65;14.82;;;;;;;;;;4917689;29;20124;-70
2022/03/09 09:20:09;;;;;;;23.38;13.65;;;;;;;;;;4918241;29;20479;-76
2022/03/09 09:22:35;;;;;;;21.10;13.45;;;;;;;;;;4918092;29;20453;-72
2022/03/09 09:25:03;;;;;;;24.48;15.25;;;;;;;;;;4917935;29;20388;-70
2022/03/09 09:27:28;;;;;;;20.05;12.27;;;;;;;;;;4917820;29;20447;-73
2022/03/09 09:29:54;;;;;;;15.20;11.80;;;;;;;;;;4917659;29;20060;-68
2022/03/09 09:32:20;;;;;;;20.00;13.48;;;;;;;;;;4916339;29;20392;-71
2022/03/09 09:34:46;;;;;;;18.15;12.10;;;;;;;;;;4917354;29;20032;-73
2022/03/09 09:37:11;;;;;;;22.88;12.57;;;;;;;;;;4917561;29;20447;-71
2022/03/09 09:39:37;;;;;;;19.40;13.27;;;;;;;;;;4917314;29;20089;-70
2022/03/09 09:42:04;;;;;;;20.85;15.02;;;;;;;;;;4916896;29;20032;-73
2022/03/09 09:44:30;;;;;;;18.95;12.82;;;;;;;;;;4917553;29;20394;-72
2022/03/09 09:46:56;;;;;;;20.48;14.25;;;;;;;;;;4917710;29;20036;-70
2022/03/09 09:49:24;;;;;;;26.20;14.43;;;;;;;;;;4917268;29;20062;-73
2022/03/09 09:51:51;;;;;;;25.20;12.13;;;;;;;;;;4917343;29;20590;-71
2022/03/09 09:54:18;;;;;;;21.45;11.63;;;;;;;;;;4917480;29;20502;-72
2022/03/09 09:56:45;;;;;;;22.27;14.75;;;;;;;;;;4915862;29;20520;-74
2022/03/09 09:59:11;;;;;;;19.58;15.73;;;;;;;;;;4917961;29;20040;-72
2022/03/09 10:01:40;;;;;;;21.33;14.57;;;;;;;;;;4917263;29;20369;-71
2022/03/09 10:04:07;;;;;;;19.70;12.70;;;;;;;;;;4916944;29;20032;-71
2022/03/09 10:06:34;;;;;;;24.70;12.68;;;;;;;;;;4917109;29;20058;-69
2022/03/09 10:09:03;;;;;;;22.42;14.18;;;;;;;;;;4916872;29;20044;-71
2022/03/09 10:11:45;;;;;;;27.70;12.32;;;;;;;;;;4917176;29;20028;-75
2022/03/09 10:14:12;;;;;;;24.20;13.38;;;;;;;;;;4917065;29;20032;-74
2022/03/09 10:16:38;;;;;;;33.08;15.05;;;;;;;;;;4916898;29;20039;-72
2022/03/09 10:19:04;;;;;;;28.13;13.27;;;;;;;;;;4916978;29;20036;-73
2022/03/09 10:21:37;;;;;;;15.38;11.00;;;;;;;;;;4916805;29;20132;-72
2022/03/09 10:24:08;;;;;;;20.83;12.60;;;;;;;;;;4916939;29;20040;-72
2022/03/09 10:26:34;;;;;;;22.90;15.25;;;;;;;;;;4916550;29;20046;-71
2022/03/09 10:29:08;;;;;;;28.75;13.85;;;;;;;;;;4916645;29;20110;-71
2022/03/09 10:31:34;;;;;;;20.40;12.32;;;;;;;;;;4916832;29;20059;-71
2022/03/09 10:34:13;;;;;;;17.60;10.55;;;;;;;;;;4916652;29;20036;-70
2022/03/09 10:37:12;;;;;;;14.82;10.35;;;;;;;;;;4916625;29;20056;-71
2022/03/09 10:39:38;;;;;;;18.88;11.82;;;;;;;;;;4895490;29;20503;-73
2022/03/09 10:42:21;;;;;;;23.40;11.77;;;;;;;;;;4916893;29;20486;-75
2022/03/09 10:44:48;;;;;;;17.52;11.23;;;;;;;;;;4916808;29;20526;-75
2022/03/09 10:47:34;;;;;;;16.92;11.35;;;;;;;;;;4915258;29;20384;-74
2022/03/09 10:50:16;;;;;;;16.65;9.73;;;;;;;;;;4916857;29;20047;-72
2022/03/09 10:52:45;;;;;;;19.20;10.85;;;;;;;;;;4916254;29;20092;-70
2022/03/09 10:55:28;;;;;;;26.15;12.70;;;;;;;;;;4916084;29;20091;-75
2022/03/09 10:58:10;;;;;;;19.42;11.27;;;;;;;;;;4916153;29;20052;-73
2022/03/09 11:00:41;;;;;;;20.83;12.98;;;;;;;;;;4915335;29;20043;-75
2022/03/09 11:03:10;;;;;;;25.92;15.20;;;;;;;;;;4916305;29;20043;-72
2022/03/09 11:05:47;;;;;;;21.58;10.75;;;;;;;;;;4916220;29;20494;-70
2022/03/09 11:08:15;;;;;;;28.23;12.43;;;;;;;;;;4916304;29;20032;-74
2022/03/09 11:10:43;;;;;;;22.52;13.88;;;;;;;;;;4914913;29;20044;-71
2022/03/09 11:13:08;;;;;;;20.35;11.07;;;;;;;;;;4916145;29;20028;-70
2022/03/09 11:15:35;;;;;;;18.92;13.50;;;;;;;;;;4916066;29;20028;-71
2022/03/09 11:18:01;;;;;;;20.35;11.68;;;;;;;;;;4916438;29;20040;-74
2022/03/09 11:20:26;;;;;;;24.27;12.73;;;;;;;;;;4916307;29;20107;-74
2022/03/09 11:22:52;;;;;;;19.13;11.15;;;;;;;;;;4916134;29;20064;-71
2022/03/09 11:25:23;;;;;;;18.80;10.05;;;;;;;;;;4915795;29;20035;-74
2022/03/09 11:27:53;;;;;;;17.10;10.07;;;;;;;;;;4915980;29;20046;-73
2022/03/09 11:30:30;;;;;;;18.42;12.15;;;;;;;;;;4915771;29;20043;-74
2022/03/09 11:32:58;;;;;;;21.30;11.48;;;;;;;;;;4914862;29;20059;-76
2022/03/09 11:35:40;;;;;;;22.00;11.20;;;;;;;;;;4916145;29;20028;-75
2022/03/09 11:38:32;;;;;;;20.98;13.93;;;;;;;;;;4916288;29;20048;-71
2022/03/09 11:41:17;;;;;;;14.90;9.05;;;;;;;;;;4914599;29;20040;-70
2022/03/09 11:43:43;;;;;;;21.65;13.48;;;;;;;;;;4915726;29;20115;-67
2022/03/09 11:46:09;;;;;;;21.17;15.55;;;;;;;;;;4915936;29;20028;-70
2022/03/09 11:48:57;;;;;;;17.48;9.75;;;;;;;;;;4915990;29;20495;-70
2022/03/09 11:51:25;;;;;;;20.08;14.00;;;;;;;;;;4916127;29;20104;-71
2022/03/09 11:53:59;;;;;;;18.27;11.27;;;;;;;;;;4916228;29;20044;-76
2022/03/09 11:56:39;;;;;;;20.10;10.35;;;;;;;;;;4917404;29;20044;-70
2022/03/09 11:59:28;;;;;;;24.13;13.82;;;;;;;;;;4918972;29;20073;-72
2022/03/09 12:02:00;;;;;;;19.10;11.77;;;;;;;;;;4919500;29;20032;-75
2022/03/09 12:04:48;;;;;;;18.10;13.20;;;;;;;;;;4919580;29;20131;-72
2022/03/09 12:07:34;;;;;;;18.05;15.93;;;;;;;;;;4919800;29;20172;-75
2022/03/09 12:10:11;;;;;;;19.45;12.57;;;;;;;;;;4919848;29;20114;-72
2022/03/09 12:12:58;;;;;;;18.45;12.18;;;;;;;;;;4919428;29;20032;-75
2022/03/09 12:15:24;;;;;;;19.80;15.27;;;;;;;;;;4917610;29;20038;-77
2022/03/09 12:17:50;;;;;;;28.45;10.85;;;;;;;;;;4919377;29;20024;-78
2022/03/09 12:20:30;;;;;;;20.85;15.27;;;;;;;;;;4916330;29;20051;-70
2022/03/09 12:22:56;;;;;;;20.80;12.07;;;;;;;;;;4908898;29;20507;-74
2022/03/09 12:25:44;;;;;;;20.42;11.95;;;;;;;;;;4911433;29;20036;-75
2022/03/09 12:28:25;;;;;;;25.70;13.05;;;;;;;;;;4901677;29;20068;-78
2022/03/09 12:30:54;;;;;;;25.70;11.68;;;;;;;;;;4913005;29;20099;-73
2022/03/09 12:33:38;;;;;;;24.75;13.90;;;;;;;;;;4903045;29;20037;-77
2022/03/09 12:36:16;;;;;;;17.33;13.27;;;;;;;;;;4909832;29;20040;-76
2022/03/09 12:38:59;;;;;;;21.55;12.65;;;;;;;;;;4919298;29;20095;-78
2022/03/09 12:41:44;;;;;;;26.87;11.57;;;;;;;;;;4919297;29;20063;-74
2022/03/09 12:44:16;;;;;;;17.63;11.77;;;;;;;;;;4918132;29;20319;-77
2022/03/09 12:46:45;;;;;;;20.48;11.45;;;;;;;;;;4917623;29;20044;-76
2022/03/09 12:49:15;;;;;;;24.20;12.73;;;;;;;;;;4918659;29;20020;-77
2022/03/09 12:52:03;;;;;;;25.35;12.45;;;;;;;;;;4918746;29;20396;-77
2022/03/09 12:54:43;;;;;;;25.92;12.18;;;;;;;;;;4918702;29;20072;-72
2022/03/09 12:57:28;;;;;;;27.98;13.23;;;;;;;;;;4918744;29;20131;-73
2022/03/09 12:59:56;;;;;;;20.40;13.32;;;;;;;;;;4918453;29;20044;-74
2022/03/09 13:02:23;;;;;;;26.00;14.40;;;;;;;;;;4918691;29;20383;-73
2022/03/09 13:05:02;;;;;;;19.90;11.65;;;;;;;;;;4918371;29;20060;-76
2022/03/09 13:07:29;;;;;;;18.30;13.05;;;;;;;;;;4917792;29;20028;-75
2022/03/09 13:10:05;;;;;;;21.90;14.07;;;;;;;;;;4917946;29;20087;-73
2022/03/09 13:12:32;;;;;;;15.35;11.88;;;;;;;;;;4918096;29;20028;-74
2022/03/09 13:14:57;;;;;;;18.17;14.38;;;;;;;;;;4918101;29;20024;-72
2022/03/09 13:17:23;;;;;;;31.33;14.35;;;;;;;;;;4918382;29;20033;-72
2022/03/09 13:19:50;;;;;;;21.77;11.60;;;;;;;;;;4918479;29;20475;-72
2022/03/09 13:22:16;;;;;;;16.48;11.25;;;;;;;;;;4916916;29;20207;-73
2022/03/09 13:24:41;;;;;;;19.05;13.45;;;;;;;;;;4918199;29;20115;-74
2022/03/09 13:27:16;;;;;;;20.42;13.85;;;;;;;;;;4918618;29;20123;-73
2022/03/09 13:29:44;;;;;;;19.13;13.23;;;;;;;;;;4918561;29;20044;-75
2022/03/09 13:32:11;;;;;;;15.95;11.55;;;;;;;;;;4918386;29;20028;-75
2022/03/09 13:34:37;;;;;;;16.75;10.23;;;;;;;;;;4917437;29;20487;-75
2022/03/09 13:37:04;;;;;;;21.80;12.70;;;;;;;;;;4914994;29;20029;-72
2022/03/09 13:39:41;;;;;;;23.95;13.93;;;;;;;;;;4915538;29;20419;-73
2022/03/09 13:42:19;;;;;;;21.90;12.73;;;;;;;;;;4921885;29;20031;-71
2022/03/09 13:45:03;;;;;;;20.50;13.30;;;;;;;;;;4923330;29;20059;-70
2022/03/09 13:47:29;;;;;;;17.15;11.75;;;;;;;;;;4916043;29;20039;-72
2022/03/09 13:49:55;;;;;;;22.77;12.77;;;;;;;;;;4916974;29;20111;-72
2022/03/09 13:52:32;;;;;;;22.13;12.55;;;;;;;;;;4914932;29;20169;-72
2022/03/09 13:55:05;;;;;;;21.02;12.45;;;;;;;;;;4916799;29;20029;-69
2022/03/09 13:57:33;;;;;;;;;;;;;;;;;;4909848;29;20028;-67
2022/03/09 14:00:03;;;;;;;20.33;13.20;;;;;;;;;;4914375;29;20149;-74
2022/03/09 14:02:30;;;;;;;17.85;10.60;;;;;;;;;;4913769;29;20036;-71
2022/03/09 14:04:56;;;;;;;18.92;11.80;;;;;;;;;;4917775;29;20371;-69
2022/03/09 14:07:22;;;;;;;19.55;15.23;;;;;;;;;;4917634;29;20075;-69
2022/03/09 14:10:11;;;;;;;22.02;12.55;;;;;;;;;;4916502;29;20050;-72
2022/03/09 14:12:38;;;;;;;22.30;15.32;;;;;;;;;;4918310;29;20396;-69
2022/03/09 14:15:05;;;;;;;21.25;12.57;;;;;;;;;;4918685;29;20036;-73
2022/03/09 14:17:30;;;;;;;21.70;13.45;;;;;;;;;;4915909;29;20044;-73
2022/03/09 14:19:56;;;;;;;24.58;15.70;;;;;;;;;;4916330;29;20455;-69
2022/03/09 14:22:22;;;;;;;19.90;13.32;;;;;;;;;;4915957;29;20044;-71
2022/03/09 14:24:48;;;;;;;22.13;13.75;;;;;;;;;;4917117;29;20115;-74
2022/03/09 14:27:14;;;;;;;24.13;14.40;;;;;;;;;;4916954;29;20055;-74
2022/03/09 14:29:40;;;;;;;20.35;15.52;;;;;;;;;;4916527;29;20032;-75
2022/03/09 14:32:06;;;;;;;22.17;16.02;;;;;;;;;;4916905;29;20044;-73
2022/03/09 14:34:32;;;;;;;24.25;15.70;;;;;;;;;;4917093;29;20035;-78
2022/03/09 14:37:00;;;;;;;21.58;13.90;;;;;;;;;;4916952;29;20036;-75
2022/03/09 14:39:26;;;;;;;20.73;13.13;;;;;;;;;;4916406;29;20038;-72